createdAt,value
2019-01-08T00:00:03.979Z,2.50
2019-01-08T00:02:45.111Z,3.87
2019-01-08T00:05:26.458Z,2.97
2019-01-08T00:08:07.785Z,2.90
2019-01-08T00:10:48.269Z,3.03
2019-01-08T00:13:28.964Z,2.80
2019-01-08T00:16:09.595Z,2.37
2019-01-08T00:18:50.300Z,2.40
2019-01-08T00:21:31.206Z,2.20
2019-01-08T00:24:12.192Z,2.23
2019-01-08T00:26:53.187Z,2.13
2019-01-08T00:29:34.330Z,1.90
2019-01-08T00:32:15.652Z,1.83
2019-01-08T00:34:56.751Z,1.40
2019-01-08T00:37:37.803Z,1.80
2019-01-08T00:40:18.953Z,1.53
2019-01-08T00:42:59.568Z,2.20
2019-01-08T00:45:41.068Z,1.80
2019-01-08T00:48:21.688Z,1.67
2019-01-08T00:51:02.792Z,1.70
2019-01-08T00:53:43.910Z,2.10
2019-01-08T00:56:24.899Z,1.20
2019-01-08T00:59:06.444Z,2.20
2019-01-08T01:01:54.848Z,1.60
2019-01-08T01:04:43.723Z,1.90
2019-01-08T01:07:32.260Z,1.70
2019-01-08T01:10:20.535Z,1.50
2019-01-08T01:13:08.707Z,1.80
2019-01-08T01:15:56.732Z,1.43
2019-01-08T01:18:45.067Z,0.97
2019-01-08T01:21:33.420Z,1.20
2019-01-08T01:24:21.527Z,1.50
2019-01-08T01:27:10.284Z,1.60
2019-01-08T01:29:58.285Z,1.47
2019-01-08T01:32:46.976Z,1.63
2019-01-08T01:35:35.728Z,1.33
2019-01-08T01:38:23.739Z,1.23
2019-01-08T01:41:12.343Z,1.70
2019-01-08T01:44:00.793Z,1.40
2019-01-08T01:46:49.118Z,0.80
2019-01-08T01:49:37.491Z,1.40
2019-01-08T01:52:26.125Z,1.47
2019-01-08T01:55:14.464Z,1.17
2019-01-08T02:00:49.148Z,1.50
2019-01-08T02:03:30.152Z,1.60
2019-01-08T02:06:10.696Z,0.80
2019-01-08T02:08:51.296Z,1.00
2019-01-08T02:11:32.456Z,1.17
2019-01-08T02:14:13.912Z,0.90
2019-01-08T02:16:54.237Z,1.10
2019-01-08T02:19:34.779Z,0.97
2019-01-08T02:22:15.696Z,1.23
2019-01-08T02:24:56.207Z,1.43
2019-01-08T02:27:36.756Z,1.10
2019-01-08T02:30:17.567Z,1.57
2019-01-08T02:32:58.703Z,1.50
2019-01-08T02:35:39.289Z,1.63
2019-01-08T02:38:20.231Z,1.40
2019-01-08T02:41:01.713Z,1.40
2019-01-08T02:43:42.532Z,1.53
2019-01-08T02:46:23.820Z,1.50
2019-01-08T02:49:06.517Z,1.53
2019-01-08T02:51:47.644Z,1.40
2019-01-08T02:54:29.001Z,1.37
2019-01-08T02:57:09.640Z,0.70
2019-01-08T02:59:50.941Z,1.63
2019-01-08T03:02:31.809Z,1.40
2019-01-08T03:05:12.756Z,1.50
2019-01-08T03:07:54.176Z,1.63
2019-01-08T03:10:35.216Z,1.80
2019-01-08T03:13:16.193Z,1.60
2019-01-08T03:15:58.072Z,2.53
2019-01-08T03:18:38.400Z,2.93
2019-01-08T03:21:19.290Z,2.50
2019-01-08T03:24:00.356Z,2.40
2019-01-08T03:26:40.812Z,2.73
2019-01-08T03:29:22.080Z,2.67
2019-01-08T03:32:03.840Z,3.13
2019-01-08T03:34:45.034Z,4.90
2019-01-08T03:37:26.348Z,4.70
2019-01-08T03:40:07.547Z,3.47
2019-01-08T03:42:48.624Z,4.00
2019-01-08T03:45:29.777Z,4.80
2019-01-08T03:48:11.285Z,4.33
2019-01-08T03:50:52.800Z,3.80
2019-01-08T03:53:33.429Z,4.07
2019-01-08T03:56:14.386Z,4.13
2019-01-08T03:58:55.208Z,4.33
2019-01-08T04:01:35.988Z,3.63
2019-01-08T04:04:16.520Z,3.20
2019-01-08T04:06:57.668Z,3.70
2019-01-08T04:09:38.696Z,3.57
2019-01-08T04:12:19.092Z,5.13
2019-01-08T04:14:59.869Z,3.90
2019-01-08T04:17:40.391Z,4.40
2019-01-08T04:20:21.276Z,3.60
2019-01-08T04:23:01.665Z,4.43
2019-01-08T04:25:42.052Z,2.93
2019-01-08T04:28:22.958Z,3.67
2019-01-08T04:31:05.493Z,3.40
2019-01-08T04:33:54.067Z,3.97
2019-01-08T04:36:42.731Z,3.37
2019-01-08T04:39:31.164Z,4.53
2019-01-08T04:42:19.255Z,3.37
2019-01-08T04:45:07.627Z,3.90
2019-01-08T04:47:55.981Z,3.77
2019-01-08T04:50:36.828Z,4.27
2019-01-08T04:53:17.975Z,4.03
2019-01-08T04:55:58.512Z,3.73
2019-01-08T04:58:38.895Z,4.70
2019-01-08T05:01:19.592Z,4.40
2019-01-08T05:04:00.613Z,4.00
2019-01-08T05:06:42.132Z,4.43
2019-01-08T05:09:23.536Z,5.43
2019-01-08T05:12:04.091Z,4.43
2019-01-08T05:14:44.973Z,4.17
2019-01-08T05:17:26.287Z,4.30
2019-01-08T05:20:06.756Z,5.90
2019-01-08T05:22:47.525Z,7.20
2019-01-08T05:25:28.321Z,4.37
2019-01-08T05:28:09.182Z,4.97
2019-01-08T05:30:50.568Z,4.80
2019-01-08T05:33:31.609Z,5.27
2019-01-08T05:36:12.792Z,5.50
2019-01-08T05:38:54.205Z,5.40
2019-01-08T05:41:34.805Z,6.00
2019-01-08T05:44:15.588Z,5.30
2019-01-08T05:46:56.748Z,5.67
2019-01-08T05:49:37.524Z,4.80
2019-01-08T05:52:18.251Z,3.87
2019-01-08T05:54:58.991Z,5.07
2019-01-08T05:57:39.718Z,5.30
2019-01-08T06:00:20.748Z,5.00
2019-01-08T06:03:02.015Z,4.10
2019-01-08T06:05:43.433Z,4.20
2019-01-08T06:08:24.280Z,4.30
2019-01-08T06:11:05.512Z,4.43
2019-01-08T06:13:45.986Z,3.43
2019-01-08T06:16:26.980Z,4.57
2019-01-08T06:19:07.526Z,4.10
2019-01-08T06:21:48.084Z,2.70
2019-01-08T06:24:28.640Z,5.40
2019-01-08T06:27:09.888Z,3.30
2019-01-08T06:29:50.831Z,3.13
2019-01-08T06:32:32.084Z,4.10
2019-01-08T06:35:13.214Z,3.23
2019-01-08T06:37:53.754Z,3.70
2019-01-08T06:40:34.875Z,4.40
2019-01-08T06:43:15.419Z,2.87
2019-01-08T06:45:56.476Z,2.90
2019-01-08T06:48:37.334Z,6.17
2019-01-08T06:51:18.041Z,3.80
2019-01-08T06:53:57.220Z,4.70
2019-01-08T06:56:45.584Z,3.33
2019-01-08T06:59:33.595Z,2.87
2019-01-08T07:02:22.021Z,3.33
2019-01-08T07:05:10.693Z,3.63
2019-01-08T07:07:58.979Z,3.07
2019-01-08T07:10:46.987Z,3.20
2019-01-08T07:16:34.951Z,3.20
2019-01-08T07:19:22.996Z,3.17
2019-01-08T07:22:11.359Z,3.20
2019-01-08T07:24:59.855Z,3.67
2019-01-08T07:27:48.460Z,3.67
2019-01-08T07:33:31.267Z,4.33
2019-01-08T07:36:19.534Z,4.87
2019-01-08T07:39:07.512Z,2.70
2019-01-08T07:41:56.107Z,3.63
2019-01-08T07:44:44.696Z,2.83
2019-01-08T07:47:32.992Z,3.30
2019-01-08T07:50:21.071Z,2.00
2019-01-08T07:53:09.184Z,3.00
2019-01-08T07:55:50.016Z,3.17
2019-01-08T07:58:30.755Z,2.63
2019-01-08T08:01:11.648Z,2.53
2019-01-08T08:03:53.051Z,3.50
2019-01-08T08:06:33.815Z,2.23
2019-01-08T08:09:14.936Z,2.23
2019-01-08T08:11:56.261Z,2.43
2019-01-08T08:14:37.538Z,2.50
2019-01-08T08:17:18.159Z,3.80
2019-01-08T08:19:58.824Z,2.90
2019-01-08T08:22:40.221Z,4.27
2019-01-08T08:25:21.967Z,2.93
2019-01-08T08:28:04.738Z,3.60
2019-01-08T08:30:46.607Z,3.30
2019-01-08T08:33:27.570Z,3.90
2019-01-08T08:36:08.611Z,2.70
2019-01-08T08:38:50.032Z,2.63
2019-01-08T08:41:30.795Z,3.93
2019-01-08T08:44:11.475Z,2.27
2019-01-08T08:46:52.472Z,3.33
2019-01-08T08:49:32.992Z,3.70
2019-01-08T08:52:14.079Z,3.37
2019-01-08T08:54:55.049Z,2.30
2019-01-08T08:57:36.827Z,2.90
2019-01-08T09:00:18.015Z,3.53
2019-01-08T09:02:59.051Z,4.07
2019-01-08T09:05:39.639Z,3.87
2019-01-08T09:08:19.991Z,3.70
2019-01-08T09:11:02.024Z,3.10
2019-01-08T09:13:42.629Z,2.30
2019-01-08T09:16:23.240Z,2.93
2019-01-08T09:19:03.731Z,3.20
2019-01-08T09:21:44.764Z,2.13
2019-01-08T09:24:25.948Z,3.07
2019-01-08T09:27:06.404Z,3.73
2019-01-08T09:29:47.215Z,2.47
2019-01-08T09:32:28.215Z,3.97
2019-01-08T09:35:08.878Z,3.30
2019-01-08T09:37:49.689Z,3.33
2019-01-08T09:40:30.569Z,3.43
2019-01-08T09:43:11.864Z,3.13
2019-01-08T09:45:53.023Z,3.00
2019-01-08T09:48:34.174Z,3.87
2019-01-08T09:51:15.299Z,3.50
2019-01-08T09:53:56.200Z,4.40
2019-01-08T09:56:37.013Z,5.43
2019-01-08T09:59:17.908Z,3.70
2019-01-08T10:01:59.137Z,3.60
2019-01-08T10:04:39.804Z,4.33
2019-01-08T10:07:21.083Z,3.83
2019-01-08T10:10:06.230Z,4.57
2019-01-08T10:12:46.890Z,4.23
2019-01-08T10:15:28.632Z,3.60
2019-01-08T10:18:09.591Z,2.13
2019-01-08T10:20:50.653Z,3.77
2019-01-08T10:23:32.444Z,2.70
2019-01-08T10:26:13.997Z,2.17
2019-01-08T10:28:55.356Z,2.17
2019-01-08T10:31:36.029Z,2.90
2019-01-08T10:34:17.040Z,1.83
2019-01-08T10:36:57.903Z,2.80
2019-01-08T10:39:38.919Z,3.47
2019-01-08T10:42:19.475Z,2.30
2019-01-08T10:45:00.240Z,2.60
2019-01-08T10:47:41.068Z,2.63
2019-01-08T10:50:21.974Z,2.20
2019-01-08T10:53:02.864Z,2.40
2019-01-08T10:55:44.209Z,2.10
2019-01-08T10:58:25.052Z,3.03
2019-01-08T11:01:05.578Z,2.77
2019-01-08T11:03:45.898Z,2.63
2019-01-08T11:06:26.644Z,2.10
2019-01-08T11:09:07.664Z,2.30
2019-01-08T11:11:48.598Z,2.47
2019-01-08T11:14:29.373Z,2.60
2019-01-08T11:17:10.158Z,2.50
2019-01-08T11:19:51.112Z,1.60
2019-01-08T11:22:31.696Z,2.50
2019-01-08T11:25:12.788Z,2.20
2019-01-08T11:27:53.819Z,2.50
2019-01-08T11:30:35.023Z,1.60
2019-01-08T11:33:15.517Z,1.40
2019-01-08T11:35:56.296Z,1.57
2019-01-08T11:38:36.884Z,3.23
2019-01-08T11:41:18.325Z,2.30
2019-01-08T11:43:59.212Z,1.90
2019-01-08T11:46:40.431Z,1.83
2019-01-08T11:49:21.009Z,1.60
2019-01-08T11:52:04.649Z,2.40
2019-01-08T11:54:45.316Z,1.83
2019-01-08T11:57:26.482Z,2.17
2019-01-08T12:00:07.715Z,3.67
2019-01-08T12:02:48.821Z,3.60
2019-01-08T12:05:29.792Z,2.27
2019-01-08T12:08:10.399Z,3.60
2019-01-08T12:10:50.946Z,2.70
2019-01-08T12:13:32.064Z,2.80
2019-01-08T12:16:12.544Z,2.83
2019-01-08T12:18:53.818Z,3.17
2019-01-08T12:21:34.542Z,2.90
2019-01-08T12:24:15.910Z,3.53
2019-01-08T12:26:57.392Z,2.70
2019-01-08T12:29:38.142Z,2.57
2019-01-08T12:32:19.336Z,2.17
2019-01-08T12:34:59.924Z,2.93
2019-01-08T12:37:42.186Z,2.70
2019-01-08T12:40:22.906Z,2.43
2019-01-08T12:43:03.893Z,3.13
2019-01-08T12:45:44.895Z,3.30
2019-01-08T12:48:25.364Z,2.00
2019-01-08T12:51:05.655Z,2.70
2019-01-08T12:53:46.424Z,3.80
2019-01-08T12:56:26.916Z,3.03
2019-01-08T12:59:07.857Z,2.90
2019-01-08T13:01:48.964Z,1.67
2019-01-08T13:04:29.580Z,1.87
2019-01-08T13:07:10.656Z,2.63
2019-01-08T13:09:51.133Z,1.67
2019-01-08T13:12:31.909Z,1.60
2019-01-08T13:15:12.636Z,1.97
2019-01-08T13:17:53.202Z,1.73
2019-01-08T13:20:32.694Z,1.70
2019-01-08T13:23:20.784Z,1.80
2019-01-08T13:26:09.585Z,2.10
2019-01-08T13:28:58.174Z,2.17
2019-01-08T13:31:46.640Z,3.67
2019-01-08T13:37:29.374Z,2.50
2019-01-08T13:40:17.528Z,2.80
2019-01-08T13:43:06.156Z,2.43
2019-01-08T13:45:54.909Z,2.90
2019-01-08T13:48:43.166Z,2.80
2019-01-08T13:51:31.512Z,2.83
2019-01-08T13:54:20.273Z,2.23
2019-01-08T13:57:04.795Z,2.57
2019-01-08T13:59:45.800Z,2.57
2019-01-08T14:02:31.846Z,1.73
2019-01-08T14:05:09.844Z,2.20
2019-01-08T14:07:51.478Z,1.47
2019-01-08T14:10:32.301Z,1.77
2019-01-08T14:13:13.275Z,3.00
2019-01-08T14:15:54.368Z,2.10
2019-01-08T14:18:35.637Z,1.20
2019-01-08T14:21:15.871Z,1.70
2019-01-08T14:26:57.715Z,1.40
2019-01-08T14:32:41.105Z,2.10
2019-01-08T14:35:31.291Z,0.93
2019-01-08T14:38:19.991Z,1.93
2019-01-08T14:41:08.095Z,0.87
2019-01-08T14:43:56.151Z,2.13
2019-01-08T14:49:38.860Z,2.17
2019-01-08T14:52:26.844Z,2.33
2019-01-08T14:55:07.561Z,1.60
2019-01-08T14:57:48.082Z,1.80
2019-01-08T15:00:29.918Z,1.80
2019-01-08T15:03:10.693Z,1.60
2019-01-08T15:05:51.561Z,1.80
2019-01-08T15:08:32.472Z,2.30
2019-01-08T15:11:12.844Z,2.07
2019-01-08T15:13:53.444Z,1.70
2019-01-08T15:16:33.996Z,2.57
2019-01-08T15:19:14.572Z,2.20
2019-01-08T15:21:55.180Z,1.50
2019-01-08T15:24:35.488Z,2.40
2019-01-08T15:27:16.840Z,2.10
2019-01-08T15:29:57.704Z,1.90
2019-01-08T15:32:39.347Z,2.83
2019-01-08T15:35:20.737Z,2.10
2019-01-08T15:38:03.651Z,3.07
2019-01-08T15:40:44.692Z,2.00
2019-01-08T15:43:25.548Z,1.77
2019-01-08T15:46:06.436Z,2.73
2019-01-08T15:48:47.700Z,2.20
2019-01-08T15:51:28.608Z,2.73
2019-01-08T15:54:09.394Z,2.53
2019-01-08T15:56:50.023Z,1.83
2019-01-08T15:59:31.129Z,2.10
2019-01-08T16:02:12.435Z,2.77
2019-01-08T16:04:53.524Z,2.13
2019-01-08T16:07:34.082Z,1.90
2019-01-08T16:10:14.759Z,2.73
2019-01-08T16:12:55.690Z,1.90
2019-01-08T16:15:36.359Z,2.43
2019-01-08T16:18:17.512Z,2.17
2019-01-08T16:20:58.592Z,2.53
2019-01-08T16:23:40.376Z,2.20
2019-01-08T16:26:21.050Z,2.77
2019-01-08T16:29:04.750Z,2.70
2019-01-08T16:31:45.515Z,2.27
2019-01-08T16:34:26.252Z,2.23
2019-01-08T16:37:07.060Z,1.97
2019-01-08T16:39:48.539Z,1.37
2019-01-08T16:42:30.005Z,2.00
2019-01-08T16:45:11.016Z,2.20
2019-01-08T16:47:52.156Z,1.80
2019-01-08T16:50:33.552Z,2.70
2019-01-08T16:53:15.369Z,1.87
2019-01-08T16:55:56.807Z,1.60
2019-01-08T16:58:37.748Z,1.87
2019-01-08T17:01:18.160Z,2.37
2019-01-08T17:03:59.077Z,2.30
2019-01-08T17:06:40.576Z,2.23
2019-01-08T17:09:21.830Z,2.80
2019-01-08T17:12:03.032Z,1.60
2019-01-08T17:14:43.920Z,3.53
2019-01-08T17:17:24.548Z,2.10
2019-01-08T17:20:05.178Z,1.63
2019-01-08T17:22:45.959Z,1.63
2019-01-08T17:25:26.896Z,1.80
2019-01-08T17:28:07.820Z,0.70
2019-01-08T17:30:48.231Z,1.40
2019-01-08T17:33:33.753Z,1.70
2019-01-08T17:36:11.032Z,1.50
2019-01-08T17:38:51.868Z,1.80
2019-01-08T17:41:32.773Z,2.00
2019-01-08T17:44:12.408Z,1.30
2019-01-08T17:47:00.515Z,2.20
2019-01-08T17:49:48.556Z,1.90
2019-01-08T17:52:36.895Z,2.00
2019-01-08T17:55:17.990Z,2.00
2019-01-08T17:57:58.952Z,2.33
2019-01-08T18:00:40.244Z,2.70
2019-01-08T18:03:20.951Z,3.03
2019-01-08T18:06:01.872Z,2.60
2019-01-08T18:08:42.528Z,3.50
2019-01-08T18:11:22.940Z,3.30
2019-01-08T18:14:05.837Z,2.33
2019-01-08T18:16:46.903Z,2.37
2019-01-08T18:19:28.056Z,4.23
2019-01-08T18:22:08.840Z,2.90
2019-01-08T18:24:49.465Z,2.97
2019-01-08T18:27:30.407Z,2.80
2019-01-08T18:30:10.712Z,3.33
2019-01-08T18:32:51.954Z,5.53
2019-01-08T18:35:32.552Z,4.00
2019-01-08T18:38:12.840Z,3.03
2019-01-08T18:40:53.575Z,3.23
2019-01-08T18:43:34.288Z,2.03
2019-01-08T18:46:15.683Z,3.03
2019-01-08T18:48:56.628Z,2.80
2019-01-08T18:51:36.948Z,2.63
2019-01-08T18:54:18.196Z,2.33
2019-01-08T18:56:59.655Z,1.70
2019-01-08T18:59:40.500Z,1.97
2019-01-08T19:02:20.944Z,2.13
2019-01-08T19:05:02.100Z,1.90
2019-01-08T19:07:41.704Z,2.60
2019-01-08T19:10:29.703Z,2.60
2019-01-08T19:13:18.128Z,3.57
2019-01-08T19:16:06.105Z,3.27
2019-01-08T19:18:54.517Z,4.37
2019-01-08T19:21:42.488Z,6.30
2019-01-08T19:24:31.147Z,7.47
2019-01-08T19:27:19.867Z,6.60
2019-01-08T19:30:08.361Z,11.77
2019-01-08T19:32:56.827Z,5.47
2019-01-08T19:35:45.204Z,3.50
2019-01-08T19:38:33.764Z,4.50
2019-01-08T19:41:21.812Z,11.63
2019-01-08T19:44:10.123Z,8.53
2019-01-08T19:46:58.511Z,3.20
2019-01-08T19:49:46.896Z,3.27
2019-01-08T19:52:35.001Z,4.60
2019-01-08T19:55:23.533Z,5.00
2019-01-08T19:58:04.219Z,4.83
2019-01-08T20:00:45.305Z,18.60
2019-01-08T20:03:26.725Z,4.90
2019-01-08T20:06:07.839Z,3.30
2019-01-08T20:08:49.000Z,3.13
2019-01-08T20:11:30.628Z,2.63
2019-01-08T20:14:11.384Z,4.77
2019-01-08T20:16:52.060Z,3.80
2019-01-08T20:19:33.404Z,2.47
2019-01-08T20:22:13.778Z,6.40
2019-01-08T20:24:54.983Z,6.50
2019-01-08T20:27:35.461Z,5.60
2019-01-08T20:30:16.523Z,4.00
2019-01-08T20:32:57.063Z,3.43
2019-01-08T20:35:38.384Z,3.47
2019-01-08T20:38:18.768Z,2.87
2019-01-08T20:40:59.572Z,5.80
2019-01-08T20:43:40.592Z,5.00
2019-01-08T20:46:23.884Z,5.67
2019-01-08T20:49:05.158Z,3.27
2019-01-08T20:51:46.085Z,4.60
2019-01-08T20:54:27.054Z,2.60
2019-01-08T20:57:09.230Z,3.40
2019-01-08T20:59:50.483Z,2.40
2019-01-08T21:02:31.455Z,2.70
2019-01-08T21:05:12.416Z,2.97
2019-01-08T21:07:53.421Z,2.57
2019-01-08T21:10:34.304Z,2.03
2019-01-08T21:13:14.836Z,2.17
2019-01-08T21:15:55.772Z,2.07
2019-01-08T21:18:36.676Z,1.83
2019-01-08T21:21:17.480Z,1.47
2019-01-08T21:23:58.788Z,1.63
2019-01-08T21:26:39.183Z,2.07
2019-01-08T21:29:19.871Z,1.80
2019-01-08T21:32:00.462Z,1.30
2019-01-08T21:34:44.505Z,3.20
2019-01-08T21:37:24.359Z,2.60
2019-01-08T21:40:05.473Z,2.80
2019-01-08T21:42:46.469Z,2.20
2019-01-08T21:45:27.227Z,3.00
2019-01-08T21:48:08.456Z,3.10
2019-01-08T21:50:49.271Z,2.30
2019-01-08T21:53:30.018Z,2.43
2019-01-08T21:56:10.950Z,2.50
2019-01-08T21:58:51.292Z,3.97
2019-01-08T22:01:32.200Z,3.30
2019-01-08T22:04:13.035Z,3.30
2019-01-08T22:06:54.180Z,3.80
2019-01-08T22:09:34.988Z,2.17
2019-01-08T22:12:15.564Z,3.97
2019-01-08T22:14:56.016Z,1.70
2019-01-08T22:17:36.548Z,2.40
2019-01-08T22:20:17.075Z,2.90
2019-01-08T22:22:58.140Z,2.67
2019-01-08T22:25:39.438Z,1.37
2019-01-08T22:28:20.712Z,1.83
2019-01-08T22:31:01.792Z,2.07
2019-01-08T22:33:42.216Z,2.07
2019-01-08T22:36:23.074Z,1.43
2019-01-08T22:39:03.863Z,2.40
2019-01-08T22:41:44.152Z,2.17
2019-01-08T22:44:25.070Z,2.70
2019-01-08T22:47:05.618Z,2.57
2019-01-08T22:49:46.507Z,3.83
2019-01-08T22:52:27.132Z,2.60
2019-01-08T22:55:08.030Z,3.37
2019-01-08T22:57:48.728Z,3.23
2019-01-08T23:00:48.744Z,2.90
2019-01-08T23:03:29.873Z,3.20
2019-01-08T23:06:11.909Z,3.87
2019-01-08T23:08:53.348Z,4.60
2019-01-08T23:11:34.707Z,2.87
2019-01-08T23:14:15.925Z,2.50
2019-01-08T23:16:56.752Z,2.43
2019-01-08T23:19:37.464Z,2.90
2019-01-08T23:22:18.636Z,2.73
2019-01-08T23:24:59.497Z,2.30
2019-01-08T23:27:40.204Z,3.73
2019-01-08T23:30:20.823Z,2.97
2019-01-08T23:33:04.482Z,3.23
2019-01-08T23:35:45.394Z,3.10
2019-01-08T23:38:25.815Z,2.97
2019-01-08T23:41:06.636Z,2.77
2019-01-08T23:43:47.787Z,2.30
2019-01-08T23:46:28.444Z,4.33
2019-01-08T23:49:09.236Z,2.40
2019-01-08T23:51:50.138Z,3.43
2019-01-08T23:54:31.145Z,2.73
2019-01-08T23:57:11.932Z,2.50
2019-01-08T23:59:53.180Z,2.93
